createdAt,value
2022-10-17T00:01:16.668Z,13.10
2022-10-17T00:06:20.416Z,13.10
2022-10-17T00:11:25.727Z,12.80
2022-10-17T00:16:29.985Z,12.90
2022-10-17T00:21:34.175Z,12.80
2022-10-17T00:26:39.088Z,12.70
2022-10-17T00:31:43.155Z,12.50
2022-10-17T00:36:46.868Z,12.70
2022-10-17T00:41:51.314Z,12.50
2022-10-17T00:46:54.925Z,12.50
2022-10-17T00:52:00.562Z,12.30
2022-10-17T00:57:07.461Z,12.40
2022-10-17T01:02:13.335Z,12.90
2022-10-17T01:07:16.449Z,12.30
2022-10-17T01:12:23.065Z,12.80
2022-10-17T01:17:29.024Z,13.00
2022-10-17T01:22:34.387Z,12.60
2022-10-17T01:28:02.368Z,12.50
2022-10-17T01:33:09.455Z,12.60
2022-10-17T01:38:14.044Z,12.40
2022-10-17T01:43:21.860Z,12.30
2022-10-17T01:48:29.481Z,12.40
2022-10-17T01:53:34.897Z,12.30
2022-10-17T01:58:41.286Z,12.30
2022-10-17T02:03:46.527Z,12.40
2022-10-17T02:08:51.039Z,12.50
2022-10-17T02:14:15.670Z,12.40
2022-10-17T02:19:32.558Z,12.60
2022-10-17T02:24:40.736Z,12.30
2022-10-17T02:29:48.205Z,11.90
2022-10-17T02:34:54.338Z,11.90
2022-10-17T02:39:57.976Z,11.90
2022-10-17T02:45:02.365Z,12.40
2022-10-17T02:50:10.406Z,12.40
2022-10-17T02:55:16.756Z,12.10
2022-10-17T03:00:20.851Z,12.00
2022-10-17T03:05:27.032Z,12.10
2022-10-17T03:10:30.049Z,12.30
2022-10-17T03:15:34.238Z,12.20
2022-10-17T03:20:38.944Z,12.30
2022-10-17T03:25:42.355Z,12.30
2022-10-17T03:30:45.866Z,12.30
2022-10-17T03:35:51.413Z,12.20
2022-10-17T03:40:57.757Z,12.50
2022-10-17T03:46:01.201Z,12.40
2022-10-17T03:51:08.101Z,12.30
2022-10-17T03:56:17.994Z,12.50
2022-10-17T04:01:27.586Z,12.10
2022-10-17T04:06:32.211Z,12.10
2022-10-17T04:11:37.160Z,12.10
2022-10-17T04:16:40.831Z,12.40
2022-10-17T04:21:51.137Z,12.60
2022-10-17T04:26:56.412Z,12.30
2022-10-17T04:32:03.118Z,12.00
2022-10-17T04:37:31.254Z,12.10
2022-10-17T04:42:37.843Z,11.80
2022-10-17T04:47:41.532Z,12.00
2022-10-17T04:52:46.337Z,11.90
2022-10-17T04:57:50.874Z,11.50
2022-10-17T05:02:57.662Z,11.60
2022-10-17T05:08:05.432Z,11.80
2022-10-17T05:13:10.357Z,11.80
2022-10-17T05:18:13.995Z,12.00
2022-10-17T05:23:23.521Z,12.60
2022-10-17T05:28:27.928Z,12.20
2022-10-17T05:33:34.811Z,12.20
2022-10-17T05:38:42.013Z,12.30
2022-10-17T05:43:46.919Z,12.00
2022-10-17T05:48:55.679Z,11.90
2022-10-17T05:54:00.486Z,11.80
2022-10-17T05:59:06.061Z,11.80
2022-10-17T06:04:29.014Z,11.70
2022-10-17T06:09:34.151Z,11.70
2022-10-17T06:14:38.817Z,11.80
2022-10-17T07:04:40.076Z,11.50
2022-10-17T07:09:44.980Z,12.00
2022-10-17T07:14:50.490Z,12.10
2022-10-17T07:19:55.735Z,12.20
2022-10-17T07:25:00.247Z,12.70
2022-10-17T07:30:09.616Z,12.70
2022-10-17T07:35:17.818Z,13.30
2022-10-17T07:40:21.887Z,13.30
2022-10-17T07:45:27.654Z,14.50
2022-10-17T07:50:37.460Z,15.40
2022-10-17T07:55:42.539Z,15.70
2022-10-17T08:00:48.508Z,17.10
2022-10-17T08:05:54.963Z,16.90
2022-10-17T08:11:02.172Z,18.00
2022-10-17T08:16:07.387Z,18.30
2022-10-17T08:21:13.048Z,18.30
2022-10-17T08:26:17.371Z,18.00
2022-10-17T08:31:21.277Z,18.00
2022-10-17T08:36:29.142Z,19.20
2022-10-17T08:41:45.732Z,19.00
2022-10-17T08:46:49.588Z,19.20
2022-10-17T08:51:56.127Z,18.30
2022-10-17T08:57:01.290Z,18.40
2022-10-17T09:02:06.329Z,18.30
2022-10-17T09:07:14.277Z,18.50
2022-10-17T09:12:20.246Z,18.90
2022-10-17T09:17:31.261Z,19.00
2022-10-17T09:22:39.903Z,19.60
2022-10-17T09:27:44.326Z,20.40
2022-10-17T09:32:48.639Z,20.60
2022-10-17T09:37:56.929Z,20.50
2022-10-17T09:43:05.361Z,21.70
2022-10-17T09:48:16.566Z,21.00
2022-10-17T09:53:23.848Z,20.50
2022-10-17T09:58:42.617Z,20.70
2022-10-17T10:03:46.507Z,21.30
2022-10-17T10:08:52.247Z,21.10
2022-10-17T10:13:56.861Z,20.90
2022-10-17T10:19:02.810Z,21.20
2022-10-17T10:24:14.440Z,20.50
2022-10-17T10:29:28.937Z,19.80
2022-10-17T10:34:32.790Z,20.10
2022-10-17T10:39:42.689Z,21.20
2022-10-17T10:44:46.897Z,22.40
2022-10-17T10:49:54.267Z,22.40
2022-10-17T10:55:05.499Z,22.20
2022-10-17T11:00:16.226Z,22.10
2022-10-17T11:05:24.727Z,23.20
2022-10-17T11:10:31.985Z,22.90
2022-10-17T11:15:38.576Z,22.50
2022-10-17T11:20:53.390Z,21.40
2022-10-17T11:26:00.327Z,21.40
2022-10-17T11:31:08.018Z,21.50
2022-10-17T11:36:12.787Z,22.20
2022-10-17T11:41:20.385Z,21.90
2022-10-17T11:46:25.449Z,22.40
2022-10-17T11:56:58.670Z,22.80
2022-10-17T12:02:07.135Z,22.30
2022-10-17T12:07:16.601Z,23.00
2022-10-17T12:12:28.625Z,23.90
2022-10-17T12:17:34.893Z,23.40
2022-10-17T12:22:38.128Z,22.80
2022-10-17T12:27:45.911Z,23.20
2022-10-17T12:33:07.976Z,23.90
2022-10-17T12:38:32.049Z,23.80
2022-10-17T12:49:05.373Z,22.40
2022-10-17T12:54:14.104Z,22.30
2022-10-17T12:59:22.557Z,22.20
2022-10-17T13:04:26.337Z,22.50
2022-10-17T13:09:30.597Z,22.30
2022-10-17T13:14:37.572Z,22.00
2022-10-17T13:19:43.555Z,22.20
2022-10-17T13:24:49.141Z,22.40
2022-10-17T13:29:56.363Z,22.30
2022-10-17T13:35:10.225Z,22.10
2022-10-17T13:40:40.962Z,22.40
2022-10-17T13:45:47.363Z,22.60
2022-10-17T13:50:53.962Z,22.40
2022-10-17T13:56:27.984Z,22.40
2022-10-17T14:01:27.140Z,23.80
2022-10-17T14:06:30.626Z,23.70
2022-10-17T14:11:35.958Z,24.20
2022-10-17T14:16:42.243Z,23.50
2022-10-17T14:21:49.747Z,23.10
2022-10-17T14:26:54.705Z,22.70
2022-10-17T14:32:01.144Z,22.60
2022-10-17T14:37:05.620Z,22.50
2022-10-17T14:42:16.740Z,22.60
2022-10-17T14:47:42.593Z,22.20
2022-10-17T14:53:01.858Z,22.40
2022-10-17T14:58:17.669Z,22.20
2022-10-17T15:03:22.789Z,21.80
2022-10-17T15:08:27.460Z,21.40
2022-10-17T15:13:38.526Z,21.30
2022-10-17T15:18:47.665Z,21.30
2022-10-17T15:23:52.659Z,21.20
2022-10-17T15:28:56.968Z,21.20
2022-10-17T15:34:01.899Z,21.20
2022-10-17T15:39:05.957Z,21.10
2022-10-17T15:44:12.171Z,20.90
2022-10-17T15:49:19.772Z,20.70
2022-10-17T15:54:26.328Z,20.50
2022-10-17T15:59:31.996Z,20.60
2022-10-17T16:04:37.716Z,20.80
2022-10-17T16:09:41.502Z,20.60
2022-10-17T16:14:46.523Z,20.50
2022-10-17T16:19:51.995Z,20.30
2022-10-17T16:24:59.114Z,20.10
2022-10-17T16:30:04.289Z,20.00
2022-10-17T16:35:10.130Z,20.00
2022-10-17T16:40:17.263Z,20.20
2022-10-17T16:45:22.354Z,20.10
2022-10-17T16:50:27.607Z,20.30
2022-10-17T16:55:32.684Z,20.20
2022-10-17T17:00:36.266Z,20.60
2022-10-17T17:05:40.819Z,20.60
2022-10-17T17:10:52.449Z,20.30
2022-10-17T17:16:07.027Z,20.50
2022-10-17T17:21:12.346Z,20.40
2022-10-17T17:26:17.875Z,19.80
2022-10-17T17:31:23.385Z,19.50
2022-10-17T17:36:31.029Z,19.20
2022-10-17T17:41:35.316Z,18.90
2022-10-17T17:46:43.470Z,18.70
2022-10-17T17:51:48.436Z,18.70
2022-10-17T17:56:52.388Z,18.70
2022-10-17T18:01:57.477Z,18.60
2022-10-17T18:07:03.330Z,18.50
2022-10-17T18:12:08.748Z,18.70
2022-10-17T18:17:12.607Z,19.20
2022-10-17T18:22:19.473Z,18.80
2022-10-17T18:27:22.532Z,18.50
2022-10-17T18:32:26.774Z,18.80
2022-10-17T18:37:31.318Z,18.70
2022-10-17T18:42:34.846Z,18.70
2022-10-17T18:47:38.297Z,18.80
2022-10-17T18:52:42.771Z,18.90
2022-10-17T18:57:49.068Z,18.60
2022-10-17T19:02:52.410Z,18.80
2022-10-17T19:07:57.807Z,18.60
2022-10-17T19:13:03.122Z,18.40
2022-10-17T19:18:06.454Z,18.20
2022-10-17T19:23:12.096Z,18.30
2022-10-17T19:28:18.451Z,18.20
2022-10-17T19:38:39.809Z,18.60
2022-10-17T19:43:43.682Z,18.20
2022-10-17T19:48:49.975Z,18.20
2022-10-17T19:53:55.093Z,18.00
2022-10-17T19:58:58.517Z,18.20
2022-10-17T20:04:03.824Z,18.10
2022-10-17T20:09:11.044Z,17.80
2022-10-17T20:14:17.624Z,17.80
2022-10-17T20:19:21.859Z,18.40
2022-10-17T20:24:27.522Z,18.60
2022-10-17T20:29:32.330Z,18.70
2022-10-17T20:34:37.580Z,18.80
2022-10-17T20:39:42.096Z,18.10
2022-10-17T20:49:53.522Z,18.30
2022-10-17T20:54:58.208Z,18.10
2022-10-17T21:00:02.696Z,18.40
2022-10-17T21:05:08.774Z,18.20
2022-10-17T21:10:35.627Z,17.90
2022-10-17T21:15:40.666Z,17.70
2022-10-17T21:20:44.609Z,17.60
2022-10-17T21:25:49.525Z,17.20
2022-10-17T21:30:52.606Z,17.20
2022-10-17T21:35:56.221Z,17.50
2022-10-17T21:41:00.898Z,17.90
2022-10-17T21:46:04.400Z,17.50
2022-10-17T21:51:10.188Z,17.30
2022-10-17T21:56:18.334Z,17.40
2022-10-17T22:01:24.464Z,17.60
2022-10-17T22:06:44.514Z,17.90
2022-10-17T22:11:55.152Z,17.90
2022-10-17T22:16:58.384Z,17.90
2022-10-17T22:22:03.478Z,17.40
2022-10-17T22:27:11.741Z,17.20
2022-10-17T22:32:20.074Z,17.20
2022-10-17T22:37:26.180Z,17.00
2022-10-17T22:42:34.446Z,17.30
2022-10-17T22:47:38.566Z,17.40
2022-10-17T22:52:41.736Z,17.50
2022-10-17T22:57:46.493Z,17.30
2022-10-17T23:02:50.276Z,17.30
2022-10-17T23:07:53.323Z,17.10
2022-10-17T23:12:57.797Z,17.00
2022-10-17T23:18:02.429Z,17.40
2022-10-17T23:23:06.650Z,17.20
2022-10-17T23:28:12.762Z,16.90
2022-10-17T23:33:16.306Z,16.70
2022-10-17T23:38:20.605Z,16.90
2022-10-17T23:43:26.610Z,17.30
2022-10-17T23:48:30.287Z,17.30
2022-10-17T23:53:33.602Z,17.40
2022-10-17T23:58:38.528Z,17.20
